Time;durP1;ratioP1;P1;durP2;ratioP2;P2;SDS_P1;SDS_P2;PMS_P1;PMS_P2;Temp;Humidity;BMP_temperature;BMP_pressure;BME280_temperature;BME280_humidity;BME280_pressure;Samples;Min_cycle;Max_cycle;Signal;HPM_P1;HPM_P2
2022/05/31 00:00:29;;;;;;;5.50;3.10;;;;;;;6.98;100.00;100209.06;7394234;19;20394;-51
2022/05/31 00:03:02;;;;;;;3.90;2.60;;;;;;;6.80;100.00;100204.81;7388761;19;20467;-58
2022/05/31 00:05:33;;;;;;;5.23;2.83;;;;;;;6.50;100.00;100196.53;7395824;19;20384;-52
2022/05/31 00:08:02;;;;;;;5.67;2.63;;;;;;;6.37;100.00;100192.47;7388879;19;20430;-52
2022/05/31 00:10:32;;;;;;;4.20;2.57;;;;;;;6.62;100.00;100198.00;7395333;19;20466;-55
2022/05/31 00:13:01;;;;;;;4.53;2.90;;;;;;;6.76;100.00;100197.78;7388009;19;20419;-57
2022/05/31 00:15:32;;;;;;;5.10;3.00;;;;;;;6.82;100.00;100198.06;7395421;19;20919;-55
2022/05/31 00:18:04;;;;;;;6.63;3.53;;;;;;;6.50;100.00;100194.81;7387614;19;20419;-54
2022/05/31 00:20:34;;;;;;;3.97;2.73;;;;;;;6.46;100.00;100188.66;7393429;19;20387;-55
2022/05/31 00:23:03;;;;;;;4.63;2.87;;;;;;;6.30;100.00;100189.59;7388109;19;20425;-56
2022/05/31 00:25:33;;;;;;;6.40;2.93;;;;;;;6.32;100.00;100185.41;7395226;19;20471;-54
2022/05/31 00:28:02;;;;;;;4.70;3.23;;;;;;;6.38;100.00;100191.66;7387621;19;20490;-53
2022/05/31 00:30:32;;;;;;;6.03;3.70;;;;;;;6.38;100.00;100195.09;7394245;19;20385;-53
2022/05/31 00:33:04;;;;;;;5.10;3.43;;;;;;;6.32;100.00;100184.56;7387617;19;20938;-56
2022/05/31 00:35:36;;;;;;;5.70;3.40;;;;;;;6.16;100.00;100185.47;7396746;19;20477;-56
2022/05/31 00:38:06;;;;;;;5.47;3.10;;;;;;;5.97;100.00;100197.31;7384502;19;20438;-59
2022/05/31 00:40:36;;;;;;;4.40;3.20;;;;;;;5.93;100.00;100190.25;7393131;19;20403;-58
2022/05/31 00:43:08;;;;;;;5.23;3.13;;;;;;;6.03;100.00;100192.53;7384183;19;20415;-55
2022/05/31 00:45:40;;;;;;;8.43;3.57;;;;;;;6.16;100.00;100195.72;7394190;19;20933;-55
2022/05/31 00:48:16;;;;;;;6.77;3.50;;;;;;;6.33;100.00;100197.44;7388696;19;20509;-53
2022/05/31 00:50:54;;;;;;;7.37;3.57;;;;;;;6.27;100.00;100197.13;7392872;19;20388;-57
2022/05/31 00:53:25;;;;;;;6.07;3.60;;;;;;;6.18;100.00;100201.78;7387253;19;20509;-56
2022/05/31 00:55:57;;;;;;;5.33;3.70;;;;;;;6.05;100.00;100197.72;7394073;19;20390;-58
2022/05/31 00:58:31;;;;;;;5.20;3.43;;;;;;;6.19;100.00;100203.53;7388468;19;20421;-55
2022/05/31 01:01:05;;;;;;;6.83;3.93;;;;;;;6.28;100.00;100204.03;7394231;19;21161;-58
2022/05/31 01:03:40;;;;;;;7.77;3.03;;;;;;;6.30;100.00;100202.41;7389240;19;20407;-55
2022/05/31 01:06:10;;;;;;;5.80;3.50;;;;;;;6.21;100.00;100212.19;7386794;19;20379;-51
2022/05/31 01:08:41;;;;;;;4.80;3.63;;;;;;;5.93;100.00;100205.63;7393473;19;20407;-58
2022/05/31 01:11:11;;;;;;;5.93;3.70;;;;;;;6.16;100.00;100214.50;7381050;19;20386;-52
2022/05/31 01:13:40;;;;;;;7.20;3.60;;;;;;;6.28;100.00;100211.69;7391364;19;20417;-54
2022/05/31 01:16:12;;;;;;;7.50;3.30;;;;;;;6.33;100.00;100212.81;7385727;19;20400;-58
2022/05/31 01:18:44;;;;;;;11.03;5.10;;;;;;;6.41;100.00;100215.75;7382856;19;20499;-58
2022/05/31 01:21:17;;;;;;;5.43;3.37;;;;;;;6.28;100.00;100215.94;7386239;19;20398;-57
2022/05/31 01:23:54;;;;;;;8.03;4.53;;;;;;;6.39;100.00;100212.25;7391147;19;20414;-57
2022/05/31 01:26:30;;;;;;;7.23;3.63;;;;;;;6.38;100.00;100209.59;7387843;19;20465;-53
2022/05/31 01:29:06;;;;;;;7.60;4.13;;;;;;;6.31;100.00;100209.28;7392980;19;20385;-53
2022/05/31 01:31:40;;;;;;;6.40;4.10;;;;;;;6.28;100.00;100214.28;7387218;19;20415;-57
2022/05/31 01:34:12;;;;;;;15.10;3.87;;;;;;;6.00;100.00;100212.81;7391227;19;20425;-55
2022/05/31 01:36:49;;;;;;;6.00;3.97;;;;;;;6.05;100.00;100215.66;7390211;19;20423;-57
2022/05/31 01:39:24;;;;;;;7.27;4.03;;;;;;;6.38;100.00;100219.84;7393036;19;20392;-58
2022/05/31 01:41:59;;;;;;;8.30;4.40;;;;;;;6.43;100.00;100220.97;7386323;19;20422;-53
2022/05/31 01:44:30;;;;;;;6.40;4.00;;;;;;;6.28;100.00;100223.63;7390452;19;20420;-58
2022/05/31 01:47:01;;;;;;;9.23;4.07;;;;;;;6.15;100.00;100217.00;7387137;19;20427;-53
2022/05/31 01:49:33;;;;;;;4.10;2.90;;;;;;;6.00;100.00;100217.94;7391940;19;20380;-51
2022/05/31 01:52:06;;;;;;;5.63;3.43;;;;;;;5.95;100.00;100221.97;7386300;19;20417;-54
2022/05/31 01:54:37;;;;;;;4.60;3.30;;;;;;;5.71;100.00;100230.09;7390281;19;20761;-54
2022/05/31 01:57:08;;;;;;;6.77;3.60;;;;;;;5.74;100.00;100231.94;7386219;19;20416;-53
2022/05/31 01:59:45;;;;;;;4.70;3.57;;;;;;;6.00;100.00;100233.28;7392436;19;20457;-53
2022/05/31 02:02:16;;;;;;;6.43;3.90;;;;;;;6.23;100.00;100231.09;7386059;19;20525;-59
2022/05/31 02:04:46;;;;;;;9.17;4.53;;;;;;;6.32;100.00;100231.53;7391944;19;20457;-56
2022/05/31 02:07:20;;;;;;;5.40;4.33;;;;;;;6.14;100.00;100225.47;7386336;19;20417;-58
2022/05/31 02:09:51;;;;;;;6.77;3.50;;;;;;;6.17;100.00;100223.09;7392101;19;20388;-56
2022/05/31 02:12:28;;;;;;;6.63;3.77;;;;;;;6.17;100.00;100228.22;7382383;19;20438;-58
2022/05/31 02:14:58;;;;;;;6.63;3.90;;;;;;;6.26;100.00;100218.41;7395806;19;20710;-54
2022/05/31 02:17:27;;;;;;;7.90;3.70;;;;;;;6.49;100.00;100221.25;7394358;19;20420;-57
2022/05/31 02:19:57;;;;;;;6.13;4.13;;;;;;;6.22;100.00;100214.81;7402416;19;20402;-58
2022/05/31 02:22:30;;;;;;;7.30;4.27;;;;;;;6.07;100.00;100222.59;7392197;19;20414;-52
2022/05/31 02:25:00;;;;;;;7.00;3.93;;;;;;;5.89;100.00;100217.38;7398627;19;20391;-54
2022/05/31 02:27:29;;;;;;;8.67;4.03;;;;;;;5.73;100.00;100222.50;7393301;19;20947;-57
2022/05/31 02:29:59;;;;;;;8.40;4.70;;;;;;;5.82;100.00;100223.00;7398561;19;20384;-57
2022/05/31 02:32:29;;;;;;;8.90;3.77;;;;;;;5.93;100.00;100215.84;7390906;19;20421;-58
2022/05/31 02:34:58;;;;;;;6.23;4.10;;;;;;;6.26;100.00;100231.22;7398827;19;20908;-54
2022/05/31 02:37:30;;;;;;;6.70;4.30;;;;;;;6.23;100.00;100231.09;7391842;19;20428;-52
2022/05/31 02:40:00;;;;;;;7.50;4.27;;;;;;;6.28;100.00;100224.50;7398406;19;20380;-50
2022/05/31 02:42:29;;;;;;;7.20;4.43;;;;;;;5.89;100.00;100222.50;7388626;19;20447;-54
2022/05/31 02:44:59;;;;;;;8.50;4.33;;;;;;;5.60;100.00;100220.97;7397366;19;20400;-57
2022/05/31 02:47:29;;;;;;;7.40;4.67;;;;;;;5.44;100.00;100216.72;7392734;19;20423;-51
2022/05/31 02:49:58;;;;;;;6.50;3.87;;;;;;;5.33;100.00;100226.38;7397408;19;20396;-55
2022/05/31 02:52:30;;;;;;;8.53;5.17;;;;;;;5.37;100.00;100218.03;7390575;19;20417;-55
2022/05/31 02:55:00;;;;;;;7.50;4.70;;;;;;;5.38;100.00;100224.91;7397532;19;20390;-57
2022/05/31 02:57:29;;;;;;;9.03;4.73;;;;;;;5.40;100.00;100223.34;7391134;19;20977;-53
2022/05/31 02:59:59;;;;;;;9.03;5.30;;;;;;;5.41;100.00;100225.09;7397588;19;20384;-56
2022/05/31 03:02:29;;;;;;;11.83;5.20;;;;;;;5.66;100.00;100223.84;7391133;19;20485;-57
2022/05/31 03:04:59;;;;;;;9.07;5.20;;;;;;;5.83;100.00;100223.88;7397041;19;20381;-57
2022/05/31 03:07:31;;;;;;;9.63;5.37;;;;;;;5.79;100.00;100217.69;7392337;19;20415;-52
2022/05/31 03:10:01;;;;;;;9.90;5.97;;;;;;;5.66;100.00;100222.16;7397360;19;20396;-58
2022/05/31 03:12:31;;;;;;;13.33;5.00;;;;;;;5.70;100.00;100222.34;7390664;19;20479;-55
2022/05/31 03:15:03;;;;;;;7.33;4.70;;;;;;;5.79;100.00;100223.72;7396809;19;20404;-54
2022/05/31 03:17:35;;;;;;;8.60;5.00;;;;;;;5.87;100.00;100220.66;7392223;19;20431;-57
2022/05/31 03:20:09;;;;;;;8.43;4.90;;;;;;;5.76;100.00;100223.56;7399827;19;20908;-54
2022/05/31 03:22:44;;;;;;;9.50;5.47;;;;;;;5.84;100.00;100217.97;7386717;19;20433;-57
2022/05/31 03:25:17;;;;;;;11.33;5.53;;;;;;;6.03;100.00;100218.13;7396240;19;20387;-56
2022/05/31 03:27:47;;;;;;;8.43;5.20;;;;;;;6.12;100.00;100219.41;7390954;19;20426;-53
2022/05/31 03:30:17;;;;;;;8.23;4.77;;;;;;;5.78;100.00;100221.06;7396980;19;20388;-55
2022/05/31 03:32:47;;;;;;;10.30;5.33;;;;;;;5.76;100.00;100213.31;7388935;19;20422;-58
2022/05/31 03:35:17;;;;;;;8.27;5.03;;;;;;;5.64;100.00;100215.22;7398047;19;20401;-55
2022/05/31 03:37:49;;;;;;;12.37;5.40;;;;;;;5.61;100.00;100217.59;7390541;19;20508;-58
2022/05/31 03:43:02;;;;;;;9.07;4.53;;;;;;;6.11;100.00;100231.34;7388008;19;20447;-54
2022/05/31 03:45:35;;;;;;;7.13;4.63;;;;;;;6.06;100.00;100222.53;7396223;19;20397;-53
2022/05/31 03:48:06;;;;;;;8.00;4.97;;;;;;;5.90;100.00;100213.16;7390337;19;20416;-57
2022/05/31 03:50:38;;;;;;;7.70;4.90;;;;;;;5.96;100.00;100213.47;7396155;19;20385;-52
2022/05/31 03:53:12;;;;;;;7.60;4.90;;;;;;;6.00;100.00;100223.06;7389112;19;20432;-55
2022/05/31 03:55:43;;;;;;;8.03;4.93;;;;;;;6.07;100.00;100225.16;7396115;19;20397;-55
2022/05/31 03:58:13;;;;;;;10.83;5.50;;;;;;;5.78;100.00;100224.50;7388177;19;20946;-55
2022/05/31 04:00:42;;;;;;;9.60;5.13;;;;;;;5.68;100.00;100225.72;7395746;19;20404;-56
2022/05/31 04:03:12;;;;;;;6.53;4.80;;;;;;;5.59;100.00;100226.91;7383667;19;20450;-53
2022/05/31 04:05:42;;;;;;;13.40;5.37;;;;;;;5.89;100.00;100231.88;7395777;19;20401;-56
2022/05/31 04:08:15;;;;;;;14.50;6.40;;;;;;;5.92;100.00;100232.03;7389806;19;20435;-57
2022/05/31 04:10:46;;;;;;;12.83;6.40;;;;;;;5.95;100.00;100229.66;7395568;19;20399;-52
2022/05/31 04:13:15;;;;;;;17.10;8.00;;;;;;;5.98;100.00;100239.13;7383093;19;20749;-58
2022/05/31 04:15:45;;;;;;;14.33;7.87;;;;;;;5.72;100.00;100246.34;7395409;19;20468;-54
2022/05/31 04:18:16;;;;;;;11.23;6.97;;;;;;;5.55;100.00;100256.56;7389225;19;20937;-56
2022/05/31 04:20:46;;;;;;;11.53;6.63;;;;;;;5.54;100.00;100262.50;7395241;19;20387;-56
2022/05/31 04:26:06;;;;;;;9.90;6.90;;;;;;;5.63;100.00;100262.97;7394761;19;20388;-54
2022/05/31 04:28:36;;;;;;;13.17;6.30;;;;;;;5.98;100.00;100264.75;7394252;19;20412;-56
2022/05/31 04:31:05;;;;;;;18.07;7.17;;;;;;;6.27;100.00;100268.88;7387460;19;20392;-57
2022/05/31 04:33:35;;;;;;;11.97;7.10;;;;;;;6.20;100.00;100272.78;7392307;19;20413;-56
2022/05/31 04:36:07;;;;;;;13.17;8.00;;;;;;;6.15;100.00;100269.09;7392809;19;20391;-57
2022/05/31 04:38:39;;;;;;;12.80;7.43;;;;;;;6.19;100.00;100267.59;7393660;19;20750;-58
2022/05/31 04:41:09;;;;;;;12.43;7.40;;;;;;;6.18;100.00;100265.81;7384190;19;20996;-56
2022/05/31 04:43:39;;;;;;;10.73;6.60;;;;;;;6.23;100.00;100266.94;7391620;19;20416;-54
2022/05/31 04:46:13;;;;;;;9.40;6.40;;;;;;;6.28;100.00;100265.50;7386097;19;20391;-55
2022/05/31 04:48:42;;;;;;;16.07;7.97;;;;;;;6.30;100.00;100263.91;7393918;19;20924;-52
2022/05/31 04:51:13;;;;;;;13.67;8.33;;;;;;;6.35;100.00;100266.69;7386800;19;20725;-53
2022/05/31 04:53:45;;;;;;;17.33;9.80;;;;;;;6.35;100.00;100262.47;7391706;19;20943;-57
2022/05/31 04:56:19;;;;;;;14.07;6.83;;;;;;;6.40;100.00;100264.38;7388874;19;20396;-55
2022/05/31 04:58:51;;;;;;;10.70;6.83;;;;;;;6.47;100.00;100269.00;7393931;19;20389;-56
2022/05/31 05:01:22;;;;;;;20.63;12.80;;;;;;;6.54;100.00;100260.81;7391214;19;20404;-59
2022/05/31 05:03:52;;;;;;;39.10;21.30;;;;;;;6.88;100.00;100266.75;7391620;19;20483;-54
2022/05/31 05:06:22;;;;;;;34.10;20.03;;;;;;;7.41;100.00;100276.94;7387764;19;20467;-57
2022/05/31 05:08:55;;;;;;;27.30;14.87;;;;;;;7.67;100.00;100265.31;7393565;19;20386;-54
2022/05/31 05:11:26;;;;;;;16.93;9.80;;;;;;;7.92;100.00;100271.56;7388812;19;20406;-56
2022/05/31 05:13:57;;;;;;;14.93;9.87;;;;;;;8.31;100.00;100264.66;7390972;19;20410;-55
2022/05/31 05:16:27;;;;;;;11.37;7.53;;;;;;;8.55;100.00;100269.13;7384010;19;20929;-57
2022/05/31 05:18:58;;;;;;;10.80;6.97;;;;;;;8.69;100.00;100262.84;7393167;19;20391;-55
2022/05/31 05:21:27;;;;;;;9.60;6.47;;;;;;;8.81;100.00;100259.88;7385325;19;20405;-54
2022/05/31 05:24:00;;;;;;;9.20;5.70;;;;;;;9.04;100.00;100255.66;7390768;19;20411;-53
2022/05/31 05:26:29;;;;;;;7.07;5.17;;;;;;;8.89;100.00;100252.50;7383477;19;20407;-55
2022/05/31 05:31:42;;;;;;;6.30;4.57;;;;;;;8.92;100.00;100250.03;7384715;19;20471;-56
2022/05/31 05:34:11;;;;;;;7.83;4.30;;;;;;;9.09;100.00;100247.25;7393780;19;20427;-56
2022/05/31 05:36:41;;;;;;;7.80;5.00;;;;;;;9.24;100.00;100247.88;7385915;19;20423;-55
2022/05/31 05:39:13;;;;;;;7.90;4.83;;;;;;;9.21;100.00;100236.56;7392720;19;20721;-56
2022/05/31 05:41:43;;;;;;;8.80;4.80;;;;;;;9.49;100.00;100237.63;7384827;19;20404;-55
2022/05/31 05:44:12;;;;;;;6.43;3.80;;;;;;;9.55;100.00;100235.28;7390391;19;20423;-54
2022/05/31 05:46:43;;;;;;;7.90;3.67;;;;;;;9.75;100.00;100230.91;7385736;19;20425;-54
2022/05/31 05:49:12;;;;;;;4.47;3.20;;;;;;;9.80;100.00;100219.03;7397702;19;20379;-55
2022/05/31 05:51:42;;;;;;;4.50;2.40;;;;;;;9.65;100.00;100211.63;7388546;19;20420;-56
2022/05/31 05:54:14;;;;;;;4.63;1.90;;;;;;;9.68;100.00;100203.13;7397554;19;20415;-53
2022/05/31 05:56:44;;;;;;;3.40;2.13;;;;;;;9.84;100.00;100209.72;7391538;19;20411;-55
2022/05/31 05:59:13;;;;;;;4.07;2.20;;;;;;;9.94;100.00;100205.78;7399795;19;20391;-55
2022/05/31 06:01:46;;;;;;;24.20;14.07;;;;;;;10.06;100.00;100205.34;7387826;19;20483;-56
2022/05/31 06:04:40;;;;;;;32.63;17.07;;;;;;;10.19;100.00;100201.47;7396808;19;20400;-58
2022/05/31 06:07:19;;;;;;;15.67;7.47;;;;;;;10.03;100.00;100198.38;7389177;19;20431;-57
2022/05/31 06:09:55;;;;;;;2.53;1.33;;;;;;;10.19;100.00;100188.56;7399399;19;20390;-58
2022/05/31 06:12:27;;;;;;;2.77;1.37;;;;;;;9.99;100.00;100199.06;7385105;19;20505;-57
2022/05/31 06:15:01;;;;;;;9.33;4.93;;;;;;;10.27;100.00;100205.22;7398842;19;20474;-57
2022/05/31 06:17:34;;;;;;;17.90;10.30;;;;;;;10.47;100.00;100203.31;7391587;19;20513;-55
2022/05/31 06:20:07;;;;;;;8.47;4.40;;;;;;;10.50;100.00;100197.38;7398756;19;20384;-58
2022/05/31 06:22:37;;;;;;;2.37;1.10;;;;;;;10.35;100.00;100195.13;7392662;19;20952;-54
2022/05/31 06:25:11;;;;;;;5.00;1.50;;;;;;;10.40;100.00;100196.16;7398796;19;20449;-53
2022/05/31 06:27:40;;;;;;;3.90;1.60;;;;;;;10.31;100.00;100201.03;7393382;19;20423;-58
2022/05/31 06:30:11;;;;;;;3.93;2.07;;;;;;;10.09;100.00;100201.16;7398027;19;20387;-53
2022/05/31 06:32:41;;;;;;;3.63;1.57;;;;;;;10.05;100.00;100203.59;7389922;19;20975;-52
2022/05/31 06:35:11;;;;;;;5.10;1.27;;;;;;;10.10;100.00;100197.75;7397450;19;20391;-56
2022/05/31 06:37:40;;;;;;;6.60;2.87;;;;;;;10.19;100.00;100201.47;7391363;19;20424;-57
2022/05/31 06:40:15;;;;;;;41.87;22.17;;;;;;;10.84;100.00;100206.22;7398413;19;20380;-56
2022/05/31 06:42:45;;;;;;;4.23;1.80;;;;;;;10.71;100.00;100202.38;7387412;19;20534;-57
2022/05/31 06:45:14;;;;;;;7.03;3.37;;;;;;;10.79;100.00;100197.47;7396173;19;20396;-56
2022/05/31 06:47:44;;;;;;;16.10;8.27;;;;;;;10.81;100.00;100203.53;7387436;19;20406;-57
2022/05/31 06:50:14;;;;;;;3.53;1.63;;;;;;;10.85;100.00;100204.50;7399951;19;20400;-59
2022/05/31 06:58:11;;;;;;;4.80;1.53;;;;;;;10.93;100.00;100197.91;7388036;19;20771;-56
2022/05/31 07:00:40;;;;;;;2.03;1.00;;;;;;;11.00;100.00;100201.53;7396231;19;20469;-57
2022/05/31 07:03:13;;;;;;;5.40;2.43;;;;;;;10.99;100.00;100202.38;7386226;19;20432;-57
2022/05/31 07:05:43;;;;;;;4.80;1.00;;;;;;;11.07;100.00;100194.03;7397579;19;20386;-58
2022/05/31 07:08:13;;;;;;;3.07;1.40;;;;;;;11.08;100.00;100193.19;7391608;19;20518;-55
2022/05/31 07:10:45;;;;;;;2.57;1.07;;;;;;;11.04;100.00;100200.81;7397276;19;20401;-57
2022/05/31 07:13:15;;;;;;;35.90;8.57;;;;;;;10.89;100.00;100199.50;7388430;19;20800;-57
2022/05/31 07:15:45;;;;;;;3.60;1.57;;;;;;;10.69;100.00;100200.56;7397341;19;20460;-54
2022/05/31 07:18:34;;;;;;;9.50;2.10;;;;;;;10.75;100.00;100206.81;7392828;19;20406;-55
2022/05/31 07:21:04;;;;;;;8.63;1.30;;;;;;;11.04;100.00;100212.00;7396951;19;20380;-58
2022/05/31 07:23:34;;;;;;;3.40;1.20;;;;;;;11.08;100.00;100205.25;7388452;19;20824;-54
2022/05/31 07:26:07;;;;;;;3.73;1.03;;;;;;;10.93;100.00;100209.09;7396450;19;20397;-54
2022/05/31 07:28:57;;;;;;;16.10;3.83;;;;;;;11.04;100.00;100200.81;7391501;19;20408;-55
2022/05/31 07:31:27;;;;;;;4.17;1.30;;;;;;;10.98;100.00;100198.91;7384660;19;20420;-53
2022/05/31 07:33:58;;;;;;;25.83;7.60;;;;;;;11.03;100.00;100207.66;7394218;19;20779;-55
2022/05/31 07:36:27;;;;;;;6.03;1.90;;;;;;;11.27;100.00;100193.75;7384874;19;20826;-56
2022/05/31 07:38:57;;;;;;;5.30;1.70;;;;;;;11.37;100.00;100200.06;7396380;19;20391;-54
2022/05/31 07:41:32;;;;;;;5.37;1.80;;;;;;;11.43;100.00;100215.75;7384938;19;20418;-56
2022/05/31 07:44:02;;;;;;;6.07;1.30;;;;;;;11.60;100.00;100202.47;7394023;19;20436;-57
2022/05/31 07:46:32;;;;;;;8.13;2.57;;;;;;;11.43;100.00;100200.25;7387578;19;20413;-57
2022/05/31 07:49:02;;;;;;;22.27;7.40;;;;;;;11.36;100.00;100195.75;7395194;19;20413;-55
2022/05/31 07:51:32;;;;;;;11.17;3.27;;;;;;;11.28;100.00;100204.97;7386937;19;20423;-50
2022/05/31 07:54:01;;;;;;;8.17;2.67;;;;;;;11.35;100.00;100202.59;7393874;19;20944;-53
2022/05/31 07:56:34;;;;;;;3.73;1.40;;;;;;;11.38;100.00;100199.25;7388913;19;20409;-58
2022/05/31 07:59:03;;;;;;;2.80;1.13;;;;;;;11.32;100.00;100199.06;7395924;19;20935;-57
2022/05/31 08:01:33;;;;;;;9.27;3.60;;;;;;;11.48;100.00;100188.34;7389213;19;21015;-58
2022/05/31 08:04:03;;;;;;;7.10;1.90;;;;;;;11.67;100.00;100191.47;7396150;19;20421;-55
2022/05/31 08:06:34;;;;;;;3.77;1.30;;;;;;;11.91;100.00;100187.81;7385617;19;20407;-58
2022/05/31 08:09:05;;;;;;;2.07;0.87;;;;;;;12.01;100.00;100183.78;7391976;19;20417;-58
2022/05/31 08:11:37;;;;;;;3.83;1.27;;;;;;;11.86;100.00;100185.09;7381226;19;20475;-56
2022/05/31 08:14:07;;;;;;;4.43;1.30;;;;;;;11.84;100.00;100186.75;7392336;19;20418;-56
2022/05/31 08:16:38;;;;;;;4.33;1.10;;;;;;;11.74;100.00;100189.91;7384970;19;20401;-55
2022/05/31 08:19:09;;;;;;;2.73;1.10;;;;;;;11.69;100.00;100187.22;7394170;19;20402;-54
2022/05/31 08:21:38;;;;;;;3.07;1.00;;;;;;;11.72;100.00;100189.91;7388020;19;20428;-54
2022/05/31 08:24:11;;;;;;;3.03;1.60;;;;;;;11.56;100.00;100186.00;7392576;19;20439;-57
2022/05/31 08:27:03;;;;;;;3.53;1.10;;;;;;;11.63;100.00;100194.78;7386849;19;20441;-54
2022/05/31 08:29:33;;;;;;;4.40;1.10;;;;;;;11.48;100.00;100183.19;7394458;19;20403;-54
2022/05/31 08:32:03;;;;;;;2.77;0.93;;;;;;;11.44;100.00;100183.91;7383527;19;20414;-57
2022/05/31 08:34:32;;;;;;;3.70;1.40;;;;;;;11.40;100.00;100189.84;7393118;19;20740;-54
2022/05/31 08:37:02;;;;;;;2.47;1.00;;;;;;;11.59;100.00;100185.22;7384865;19;20416;-55
2022/05/31 08:39:31;;;;;;;3.90;1.10;;;;;;;11.70;100.00;100178.63;7394266;19;20462;-54
2022/05/31 08:42:09;;;;;;;2.67;0.93;;;;;;;11.95;100.00;100179.28;7386220;19;20420;-56
2022/05/31 08:44:47;;;;;;;4.73;0.90;;;;;;;12.07;100.00;100180.50;7392813;19;20390;-57
2022/05/31 08:47:23;;;;;;;2.70;1.40;;;;;;;12.25;100.00;100173.22;7387564;19;20936;-55
2022/05/31 08:52:57;;;;;;;3.07;1.53;;;;;;;12.53;100.00;100189.44;7388056;19;20469;-57
2022/05/31 08:58:18;;;;;;;1.90;0.90;;;;;;;12.77;100.00;100188.25;7383501;19;20449;-58
2022/05/31 09:00:49;;;;;;;3.30;1.60;;;;;;;12.88;100.00;100179.88;7394541;19;20384;-55
2022/05/31 09:03:22;;;;;;;3.50;0.90;;;;;;;12.67;100.00;100175.97;7388047;19;20753;-53
2022/05/31 09:05:55;;;;;;;4.30;1.60;;;;;;;12.50;100.00;100189.34;7395929;19;20401;-55
2022/05/31 09:08:28;;;;;;;19.63;6.07;;;;;;;12.51;100.00;100187.66;7387891;19;20492;-57
2022/05/31 09:11:04;;;;;;;3.13;1.30;;;;;;;12.69;100.00;100182.94;7393031;19;20383;-57
2022/05/31 09:13:43;;;;;;;2.40;1.00;;;;;;;12.62;100.00;100198.25;7391937;19;20432;-57
2022/05/31 09:16:18;;;;;;;2.10;0.97;;;;;;;12.73;100.00;100190.75;7386699;19;20381;-55
2022/05/31 09:18:52;;;;;;;20.20;11.63;;;;;;;13.07;100.00;100183.75;7393242;19;20403;-55
2022/05/31 09:21:25;;;;;;;10.03;2.90;;;;;;;13.21;100.00;100173.69;7384469;19;20914;-58
2022/05/31 09:23:56;;;;;;;52.23;14.23;;;;;;;12.99;100.00;100178.41;7394989;19;20939;-57
2022/05/31 09:26:51;;;;;;;13.13;7.20;;;;;;;13.07;100.00;100169.09;7387790;19;20460;-57
2022/05/31 09:29:25;;;;;;;8.50;1.63;;;;;;;13.33;100.00;100167.94;7401014;19;20529;-56
2022/05/31 09:32:05;;;;;;;8.10;4.33;;;;;;;13.46;100.00;100169.06;7392343;19;20418;-56
2022/05/31 09:34:53;;;;;;;7.63;4.10;;;;;;;13.70;100.00;100158.31;7397838;19;20423;-56
2022/05/31 09:37:36;;;;;;;5.60;1.20;;;;;;;13.85;100.00;100144.75;7392791;19;20948;-58
2022/05/31 09:40:19;;;;;;;4.87;2.30;;;;;;;13.99;100.00;100154.50;7401526;19;20381;-51
2022/05/31 09:43:04;;;;;;;7.03;1.93;;;;;;;13.83;100.00;100148.16;7390486;19;20418;-56
2022/05/31 09:45:40;;;;;;;4.17;2.00;;;;;;;13.98;100.00;100158.84;7397874;19;20552;-51
2022/05/31 09:48:09;;;;;;;3.27;1.27;;;;;;;14.06;100.00;100161.59;7392855;19;20485;-56
2022/05/31 09:50:40;;;;;;;4.00;2.10;;;;;;;14.10;100.00;100162.50;7400277;19;20384;-57
2022/05/31 09:57:05;;;;;;;3.63;1.17;;;;;;;14.21;100.00;100167.88;7390531;19;20448;-55
2022/05/31 09:59:05;;;;;;;3.60;1.60;;;;;;;13.71;100.00;100122.91;7399181;19;20433;-57
2022/05/31 10:01:44;;;;;;;3.77;1.10;;;;;;;13.74;100.00;100103.09;7387884;19;20431;-53
2022/05/31 10:04:16;;;;;;;14.00;4.80;;;;;;;13.89;100.00;100102.50;7397354;19;20513;-55
2022/05/31 10:06:58;;;;;;;2.50;1.07;;;;;;;13.66;100.00;100089.13;7395843;19;20418;-54
2022/05/31 10:09:33;;;;;;;6.80;2.23;;;;;;;13.21;100.00;100081.34;7399692;19;20403;-53
2022/05/31 10:12:18;;;;;;;7.23;2.20;;;;;;;13.45;100.00;100053.28;7393391;19;20430;-57
2022/05/31 10:14:49;;;;;;;2.73;1.03;;;;;;;13.42;100.00;100043.72;7399265;19;20381;-56
2022/05/31 10:17:41;;;;;;;4.67;1.47;;;;;;;13.44;100.00;100036.84;7393543;19;20424;-56
2022/05/31 10:20:21;;;;;;;3.43;1.10;;;;;;;13.75;100.00;100006.31;7399572;19;20415;-56
2022/05/31 10:22:53;;;;;;;2.63;1.10;;;;;;;14.03;100.00;100034.44;7390895;19;20429;-55
2022/05/31 10:25:25;;;;;;;7.07;2.17;;;;;;;14.44;100.00;100199.41;7397447;19;20388;-55
2022/05/31 10:27:59;;;;;;;4.47;2.23;;;;;;;14.18;100.00;100268.16;7391122;19;20509;-56
2022/05/31 10:30:29;;;;;;;2.93;0.90;;;;;;;14.21;100.00;100253.50;7399077;19;20387;-58
2022/05/31 10:33:08;;;;;;;19.10;5.90;;;;;;;14.28;100.00;100296.88;7389772;19;20419;-52
2022/05/31 10:35:40;;;;;;;4.30;1.43;;;;;;;14.20;100.00;100320.06;7396656;19;20392;-57
2022/05/31 10:38:27;;;;;;;6.50;2.23;;;;;;;14.43;100.00;100354.28;7391009;19;20403;-56
2022/05/31 10:40:59;;;;;;;3.00;1.40;;;;;;;14.18;100.00;100387.50;7398024;19;20387;-56
2022/05/31 10:43:40;;;;;;;4.83;1.43;;;;;;;13.94;100.00;100389.56;7388765;19;20426;-53
2022/05/31 10:46:13;;;;;;;3.57;1.20;;;;;;;14.00;100.00;100350.81;7394708;19;20395;-57
2022/05/31 10:48:49;;;;;;;3.60;0.93;;;;;;;13.88;100.00;100375.63;7397734;19;20409;-55
2022/05/31 10:51:24;;;;;;;2.30;0.80;;;;;;;14.00;100.00;100362.03;7390601;19;20391;-55
2022/05/31 10:54:04;;;;;;;3.00;1.33;;;;;;;14.53;100.00;100421.91;7396035;19;20944;-55
2022/05/31 10:56:41;;;;;;;2.40;0.90;;;;;;;14.62;100.00;100463.66;7389845;19;20415;-58
2022/05/31 10:59:17;;;;;;;4.23;1.03;;;;;;;15.05;100.00;100478.34;7397954;19;20387;-58
2022/05/31 11:01:53;;;;;;;2.40;1.00;;;;;;;14.65;100.00;100507.84;7387017;19;20956;-56
2022/05/31 11:04:39;;;;;;;4.00;1.90;;;;;;;15.39;100.00;100442.59;7395901;19;20482;-58
2022/05/31 11:07:17;;;;;;;19.80;10.90;;;;;;;16.08;100.00;100449.72;7386720;19;20495;-58
2022/05/31 11:12:52;;;;;;;9.80;6.30;;;;;;;15.62;100.00;100570.38;7389138;19;20454;-55
2022/05/31 11:15:28;;;;;;;6.23;2.63;;;;;;;15.38;100.00;100565.56;7397537;19;20397;-59
2022/05/31 11:18:18;;;;;;;12.47;6.00;;;;;;;15.16;100.00;100501.91;7386300;19;20817;-54
2022/05/31 11:20:54;;;;;;;5.50;2.50;;;;;;;15.34;100.00;100592.38;7397150;19;20390;-58
2022/05/31 11:23:42;;;;;;;12.83;6.97;;;;;;;15.50;100.00;100612.59;7390133;19;20432;-52
2022/05/31 11:26:24;;;;;;;11.87;5.40;;;;;;;15.51;100.00;100655.09;7389863;19;20397;-57
2022/05/31 11:29:26;;;;;;;3.03;0.70;;;;;;;15.40;100.00;100628.88;7396949;19;20377;-58
2022/05/31 11:32:00;;;;;;;2.87;0.97;;;;;;;15.40;100.00;100670.47;7387724;19;20428;-58
2022/05/31 11:34:48;;;;;;;2.53;0.80;;;;;;;15.40;100.00;100719.88;7394958;19;20424;-57
2022/05/31 11:37:30;;;;;;;2.60;1.10;;;;;;;15.51;100.00;100733.97;7390679;19;20416;-54
2022/05/31 11:40:09;;;;;;;10.87;4.20;;;;;;;15.90;100.00;100666.22;7400837;19;20750;-57
2022/05/31 11:42:52;;;;;;;5.80;3.27;;;;;;;16.03;100.00;100706.38;7385195;19;20857;-59
2022/05/31 11:45:24;;;;;;;2.67;0.83;;;;;;;16.01;100.00;100734.97;7395575;19;20395;-57
2022/05/31 11:48:35;;;;;;;4.90;0.80;;;;;;;16.03;100.00;100787.94;7389660;19;20960;-60
2022/05/31 11:51:15;;;;;;;2.40;1.10;;;;;;;16.32;100.00;100821.44;7389526;19;20406;-58
2022/05/31 11:54:08;;;;;;;2.70;0.80;;;;;;;16.14;100.00;100813.28;7393768;19;20402;-53
2022/05/31 11:56:47;;;;;;;2.30;0.80;;;;;;;16.33;100.00;100797.19;7390557;19;20412;-59
2022/05/31 11:59:19;;;;;;;3.50;0.87;;;;;;;16.41;100.00;100791.25;7396200;19;20458;-55
2022/05/31 12:01:52;;;;;;;3.00;1.40;;;;;;;16.68;100.00;100784.75;7384313;19;20418;-59
2022/05/31 12:04:30;;;;;;;4.97;1.00;;;;;;;16.60;100.00;100790.72;7393840;19;20982;-56
2022/05/31 12:07:05;;;;;;;2.50;0.60;;;;;;;16.05;100.00;100832.22;7386935;19;20506;-55
2022/05/31 12:09:42;;;;;;;2.60;0.70;;;;;;;16.40;100.00;100818.13;7395833;19;20391;-55
2022/05/31 12:12:16;;;;;;;4.30;1.10;;;;;;;16.55;100.00;100809.69;7389680;19;20435;-56